Fremont, Indiana
Current Conditions -  °F | °C
As of 3:15 PM on Thursday 23 Oct 2014 (Local Time) from KANQ Reporting Station
NA  
Wind Chill: 57°   Ceiling: NA
Heat Index: 57°   Visibility: NA
Dew Point: 39°   Wind: 12mph
Humidity: 51%   Direction: 220°SW
Pressure: 30.16"   Gusts: NA
Location:  41.73°N, 84.93°W
Report Text: KANQ 231915Z AUTO 22010KT 14/04 A3016 RMK
Loading
Personal Weather Stations






























Interactive Weather Map New forecast layout! Learn more

10-Day Weather Forecast

Advertisements
Track Severe Weather on mobile